sensor_id;sensor_type;location;lat;lon;timestamp;temperature;humidity
3816;DHT22;1923;48.154;11.536;2023-07-08T00:02:15;21.40;72.00
3816;DHT22;1923;48.154;11.536;2023-07-08T00:04:44;21.40;72.90
3816;DHT22;1923;48.154;11.536;2023-07-08T00:07:13;21.40;72.20
3816;DHT22;1923;48.154;11.536;2023-07-08T00:09:44;21.50;72.50
3816;DHT22;1923;48.154;11.536;2023-07-08T00:12:12;21.40;72.80
3816;DHT22;1923;48.154;11.536;2023-07-08T00:14:40;21.40;73.00
3816;DHT22;1923;48.154;11.536;2023-07-08T00:17:11;21.30;73.10
3816;DHT22;1923;48.154;11.536;2023-07-08T00:19:40;21.40;73.40
3816;DHT22;1923;48.154;11.536;2023-07-08T00:22:11;21.30;73.50
3816;DHT22;1923;48.154;11.536;2023-07-08T00:24:40;21.20;73.80
3816;DHT22;1923;48.154;11.536;2023-07-08T00:27:11;21.20;74.10
3816;DHT22;1923;48.154;11.536;2023-07-08T00:29:40;21.30;74.10
3816;DHT22;1923;48.154;11.536;2023-07-08T00:32:11;21.30;73.90
3816;DHT22;1923;48.154;11.536;2023-07-08T00:34:40;21.20;74.30
3816;DHT22;1923;48.154;11.536;2023-07-08T00:37:11;21.20;74.50
3816;DHT22;1923;48.154;11.536;2023-07-08T00:39:39;21.30;74.40
3816;DHT22;1923;48.154;11.536;2023-07-08T00:42:16;21.30;74.60
3816;DHT22;1923;48.154;11.536;2023-07-08T00:44:44;21.30;74.90
3816;DHT22;1923;48.154;11.536;2023-07-08T00:47:14;21.40;74.90
3816;DHT22;1923;48.154;11.536;2023-07-08T00:49:45;21.20;74.90
3816;DHT22;1923;48.154;11.536;2023-07-08T00:52:21;21.30;75.40
3816;DHT22;1923;48.154;11.536;2023-07-08T00:54:50;21.20;75.50
3816;DHT22;1923;48.154;11.536;2023-07-08T00:57:21;21.20;75.60
3816;DHT22;1923;48.154;11.536;2023-07-08T00:59:53;21.20;75.80
3816;DHT22;1923;48.154;11.536;2023-07-08T01:02:25;21.30;76.00
3816;DHT22;1923;48.154;11.536;2023-07-08T01:04:58;21.30;76.00
3816;DHT22;1923;48.154;11.536;2023-07-08T01:07:31;21.30;76.40
3816;DHT22;1923;48.154;11.536;2023-07-08T01:10:02;21.30;76.80
3816;DHT22;1923;48.154;11.536;2023-07-08T01:12:36;21.20;77.00
3816;DHT22;1923;48.154;11.536;2023-07-08T01:15:06;21.30;77.00
3816;DHT22;1923;48.154;11.536;2023-07-08T01:17:34;21.40;76.80
3816;DHT22;1923;48.154;11.536;2023-07-08T01:20:04;21.40;77.00
3816;DHT22;1923;48.154;11.536;2023-07-08T01:22:36;21.20;77.40
3816;DHT22;1923;48.154;11.536;2023-07-08T01:25:06;21.00;78.00
3816;DHT22;1923;48.154;11.536;2023-07-08T01:27:38;20.90;78.60
3816;DHT22;1923;48.154;11.536;2023-07-08T01:30:08;21.10;78.80
3816;DHT22;1923;48.154;11.536;2023-07-08T01:32:40;21.00;78.70
3816;DHT22;1923;48.154;11.536;2023-07-08T01:35:12;20.90;79.00
3816;DHT22;1923;48.154;11.536;2023-07-08T01:37:44;20.90;79.50
3816;DHT22;1923;48.154;11.536;2023-07-08T01:40:24;20.90;79.90
3816;DHT22;1923;48.154;11.536;2023-07-08T01:42:53;20.90;80.40
3816;DHT22;1923;48.154;11.536;2023-07-08T01:45:23;20.90;80.00
3816;DHT22;1923;48.154;11.536;2023-07-08T01:47:55;20.90;80.00
3816;DHT22;1923;48.154;11.536;2023-07-08T01:50:25;20.90;79.60
3816;DHT22;1923;48.154;11.536;2023-07-08T01:52:58;20.90;79.90
3816;DHT22;1923;48.154;11.536;2023-07-08T01:55:27;20.90;79.80
3816;DHT22;1923;48.154;11.536;2023-07-08T01:57:57;20.80;80.10
3816;DHT22;1923;48.154;11.536;2023-07-08T02:00:25;20.80;80.10
3816;DHT22;1923;48.154;11.536;2023-07-08T02:02:53;20.80;80.50
3816;DHT22;1923;48.154;11.536;2023-07-08T02:05:22;20.80;81.30
3816;DHT22;1923;48.154;11.536;2023-07-08T02:07:50;20.80;80.80
3816;DHT22;1923;48.154;11.536;2023-07-08T02:10:20;20.80;81.00
3816;DHT22;1923;48.154;11.536;2023-07-08T02:12:48;20.80;81.20
3816;DHT22;1923;48.154;11.536;2023-07-08T02:15:16;20.80;81.30
3816;DHT22;1923;48.154;11.536;2023-07-08T02:17:44;20.80;81.50
3816;DHT22;1923;48.154;11.536;2023-07-08T02:20:12;20.90;81.70
3816;DHT22;1923;48.154;11.536;2023-07-08T02:22:40;20.90;81.90
3816;DHT22;1923;48.154;11.536;2023-07-08T02:25:09;20.80;82.10
3816;DHT22;1923;48.154;11.536;2023-07-08T02:27:38;20.80;81.90
3816;DHT22;1923;48.154;11.536;2023-07-08T02:30:07;20.80;81.90
3816;DHT22;1923;48.154;11.536;2023-07-08T02:32:35;20.80;82.10
3816;DHT22;1923;48.154;11.536;2023-07-08T02:35:06;20.80;82.10
3816;DHT22;1923;48.154;11.536;2023-07-08T02:37:35;20.90;82.60
3816;DHT22;1923;48.154;11.536;2023-07-08T02:40:03;20.70;82.60
3816;DHT22;1923;48.154;11.536;2023-07-08T02:42:31;20.70;83.00
3816;DHT22;1923;48.154;11.536;2023-07-08T02:45:00;20.70;83.10
3816;DHT22;1923;48.154;11.536;2023-07-08T02:47:29;20.60;84.00
3816;DHT22;1923;48.154;11.536;2023-07-08T02:49:57;20.60;83.70
3816;DHT22;1923;48.154;11.536;2023-07-08T02:52:25;20.70;84.00
3816;DHT22;1923;48.154;11.536;2023-07-08T02:54:53;20.70;84.30
3816;DHT22;1923;48.154;11.536;2023-07-08T02:57:21;20.70;84.30
3816;DHT22;1923;48.154;11.536;2023-07-08T02:59:49;20.80;84.70
3816;DHT22;1923;48.154;11.536;2023-07-08T03:02:18;20.70;85.10
3816;DHT22;1923;48.154;11.536;2023-07-08T03:04:46;20.70;85.40
3816;DHT22;1923;48.154;11.536;2023-07-08T03:07:17;20.70;85.40
3816;DHT22;1923;48.154;11.536;2023-07-08T03:09:45;20.70;85.90
3816;DHT22;1923;48.154;11.536;2023-07-08T03:12:13;20.50;86.30
3816;DHT22;1923;48.154;11.536;2023-07-08T03:14:41;20.60;86.90
3816;DHT22;1923;48.154;11.536;2023-07-08T03:17:09;20.60;87.40
3816;DHT22;1923;48.154;11.536;2023-07-08T03:19:38;20.50;87.60
3816;DHT22;1923;48.154;11.536;2023-07-08T03:22:06;20.30;88.30
3816;DHT22;1923;48.154;11.536;2023-07-08T03:24:35;20.20;89.00
3816;DHT22;1923;48.154;11.536;2023-07-08T03:27:03;20.30;88.70
3816;DHT22;1923;48.154;11.536;2023-07-08T03:29:34;20.30;88.90
3816;DHT22;1923;48.154;11.536;2023-07-08T03:32:05;20.10;89.30
3816;DHT22;1923;48.154;11.536;2023-07-08T03:34:33;20.00;89.70
3816;DHT22;1923;48.154;11.536;2023-07-08T03:37:02;20.00;89.60
3816;DHT22;1923;48.154;11.536;2023-07-08T03:39:31;19.80;90.20
3816;DHT22;1923;48.154;11.536;2023-07-08T03:41:59;19.70;90.40
3816;DHT22;1923;48.154;11.536;2023-07-08T03:44:28;19.80;90.40
3816;DHT22;1923;48.154;11.536;2023-07-08T03:46:56;19.80;90.40
3816;DHT22;1923;48.154;11.536;2023-07-08T03:49:25;19.90;90.60
3816;DHT22;1923;48.154;11.536;2023-07-08T03:51:54;19.70;90.80
3816;DHT22;1923;48.154;11.536;2023-07-08T03:54:24;19.80;90.80
3816;DHT22;1923;48.154;11.536;2023-07-08T03:56:53;19.90;90.80
3816;DHT22;1923;48.154;11.536;2023-07-08T03:59:21;19.80;91.00
3816;DHT22;1923;48.154;11.536;2023-07-08T04:01:49;19.70;91.00
3816;DHT22;1923;48.154;11.536;2023-07-08T04:04:17;19.80;91.30
3816;DHT22;1923;48.154;11.536;2023-07-08T04:06:45;20.00;91.30
3816;DHT22;1923;48.154;11.536;2023-07-08T04:09:13;20.00;91.30
3816;DHT22;1923;48.154;11.536;2023-07-08T04:11:43;20.10;91.50
3816;DHT22;1923;48.154;11.536;2023-07-08T04:14:11;20.20;91.40
3816;DHT22;1923;48.154;11.536;2023-07-08T04:16:47;20.00;91.50
3816;DHT22;1923;48.154;11.536;2023-07-08T04:19:16;20.00;91.80
3816;DHT22;1923;48.154;11.536;2023-07-08T04:21:45;20.00;91.90
3816;DHT22;1923;48.154;11.536;2023-07-08T04:24:14;20.00;92.20
3816;DHT22;1923;48.154;11.536;2023-07-08T04:26:46;20.00;92.30
3816;DHT22;1923;48.154;11.536;2023-07-08T04:29:17;20.30;92.30
3816;DHT22;1923;48.154;11.536;2023-07-08T04:31:45;20.40;92.20
3816;DHT22;1923;48.154;11.536;2023-07-08T04:34:15;20.40;92.20
3816;DHT22;1923;48.154;11.536;2023-07-08T04:36:43;20.50;92.30
3816;DHT22;1923;48.154;11.536;2023-07-08T04:39:12;20.40;92.40
3816;DHT22;1923;48.154;11.536;2023-07-08T04:41:41;20.50;92.50
3816;DHT22;1923;48.154;11.536;2023-07-08T04:44:12;20.50;92.70
3816;DHT22;1923;48.154;11.536;2023-07-08T04:46:47;20.60;93.20
3816;DHT22;1923;48.154;11.536;2023-07-08T04:49:18;20.60;94.40
3816;DHT22;1923;48.154;11.536;2023-07-08T04:51:46;20.60;95.60
3816;DHT22;1923;48.154;11.536;2023-07-08T04:54:15;20.70;94.30
3816;DHT22;1923;48.154;11.536;2023-07-08T04:56:45;20.80;95.20
3816;DHT22;1923;48.154;11.536;2023-07-08T04:59:16;20.80;95.10
3816;DHT22;1923;48.154;11.536;2023-07-08T05:01:45;20.80;94.90
3816;DHT22;1923;48.154;11.536;2023-07-08T05:04:17;20.80;95.20
3816;DHT22;1923;48.154;11.536;2023-07-08T05:06:45;20.80;95.30
3816;DHT22;1923;48.154;11.536;2023-07-08T05:09:14;20.80;95.30
3816;DHT22;1923;48.154;11.536;2023-07-08T05:11:43;20.80;95.40
3816;DHT22;1923;48.154;11.536;2023-07-08T05:14:12;20.80;95.90
3816;DHT22;1923;48.154;11.536;2023-07-08T05:16:42;20.80;95.70
3816;DHT22;1923;48.154;11.536;2023-07-08T05:19:10;20.60;95.90
3816;DHT22;1923;48.154;11.536;2023-07-08T05:21:38;20.60;96.10
3816;DHT22;1923;48.154;11.536;2023-07-08T05:24:06;20.50;96.10
3816;DHT22;1923;48.154;11.536;2023-07-08T05:26:35;20.60;96.60
3816;DHT22;1923;48.154;11.536;2023-07-08T05:29:03;20.60;96.90
3816;DHT22;1923;48.154;11.536;2023-07-08T05:31:33;20.50;97.10
3816;DHT22;1923;48.154;11.536;2023-07-08T05:34:06;20.50;97.30
3816;DHT22;1923;48.154;11.536;2023-07-08T05:36:34;20.60;97.50
3816;DHT22;1923;48.154;11.536;2023-07-08T05:39:02;20.60;97.40
3816;DHT22;1923;48.154;11.536;2023-07-08T05:41:30;20.70;97.70
3816;DHT22;1923;48.154;11.536;2023-07-08T05:43:59;20.80;97.40
3816;DHT22;1923;48.154;11.536;2023-07-08T05:46:27;20.70;97.20
3816;DHT22;1923;48.154;11.536;2023-07-08T05:48:55;20.80;97.10
3816;DHT22;1923;48.154;11.536;2023-07-08T05:51:28;20.80;97.20
3816;DHT22;1923;48.154;11.536;2023-07-08T05:53:57;20.90;96.90
3816;DHT22;1923;48.154;11.536;2023-07-08T05:56:25;21.00;96.90
3816;DHT22;1923;48.154;11.536;2023-07-08T05:58:53;21.10;96.90
3816;DHT22;1923;48.154;11.536;2023-07-08T06:01:21;21.30;96.80
3816;DHT22;1923;48.154;11.536;2023-07-08T06:03:49;21.50;96.60
3816;DHT22;1923;48.154;11.536;2023-07-08T06:06:18;21.60;96.40
3816;DHT22;1923;48.154;11.536;2023-07-08T06:08:47;21.70;96.50
3816;DHT22;1923;48.154;11.536;2023-07-08T06:11:15;21.80;95.80
3816;DHT22;1923;48.154;11.536;2023-07-08T06:13:43;21.90;95.80
3816;DHT22;1923;48.154;11.536;2023-07-08T06:16:12;22.00;95.70
3816;DHT22;1923;48.154;11.536;2023-07-08T06:18:48;22.20;95.20
3816;DHT22;1923;48.154;11.536;2023-07-08T06:21:16;22.30;94.90
3816;DHT22;1923;48.154;11.536;2023-07-08T06:23:44;22.30;94.90
3816;DHT22;1923;48.154;11.536;2023-07-08T06:26:14;22.40;94.90
3816;DHT22;1923;48.154;11.536;2023-07-08T06:28:42;22.60;94.80
3816;DHT22;1923;48.154;11.536;2023-07-08T06:31:10;22.60;94.60
3816;DHT22;1923;48.154;11.536;2023-07-08T06:33:38;22.70;94.70
3816;DHT22;1923;48.154;11.536;2023-07-08T06:36:06;22.80;94.80
3816;DHT22;1923;48.154;11.536;2023-07-08T06:38:34;23.00;94.60
3816;DHT22;1923;48.154;11.536;2023-07-08T06:41:02;23.20;93.70
3816;DHT22;1923;48.154;11.536;2023-07-08T06:43:32;23.30;93.80
3816;DHT22;1923;48.154;11.536;2023-07-08T06:46:00;23.40;93.80
3816;DHT22;1923;48.154;11.536;2023-07-08T06:48:28;23.40;93.40
3816;DHT22;1923;48.154;11.536;2023-07-08T06:50:56;23.70;93.50
3816;DHT22;1923;48.154;11.536;2023-07-08T06:53:25;23.90;92.90
3816;DHT22;1923;48.154;11.536;2023-07-08T06:55:53;24.00;92.70
3816;DHT22;1923;48.154;11.536;2023-07-08T06:58:21;24.00;92.60
3816;DHT22;1923;48.154;11.536;2023-07-08T07:00:50;24.20;92.60
3816;DHT22;1923;48.154;11.536;2023-07-08T07:03:19;24.20;92.60
3816;DHT22;1923;48.154;11.536;2023-07-08T07:05:47;24.20;92.70
3816;DHT22;1923;48.154;11.536;2023-07-08T07:08:15;24.40;93.10
3816;DHT22;1923;48.154;11.536;2023-07-08T07:10:43;24.50;93.00
3816;DHT22;1923;48.154;11.536;2023-07-08T07:13:11;24.60;93.00
3816;DHT22;1923;48.154;11.536;2023-07-08T07:15:39;24.50;92.80
3816;DHT22;1923;48.154;11.536;2023-07-08T07:18:09;24.50;92.90
3816;DHT22;1923;48.154;11.536;2023-07-08T07:20:37;24.70;92.80
3816;DHT22;1923;48.154;11.536;2023-07-08T07:23:05;24.90;92.50
3816;DHT22;1923;48.154;11.536;2023-07-08T07:25:34;25.10;92.30
3816;DHT22;1923;48.154;11.536;2023-07-08T07:28:03;24.90;92.10
3816;DHT22;1923;48.154;11.536;2023-07-08T07:30:31;25.20;91.90
3816;DHT22;1923;48.154;11.536;2023-07-08T07:33:00;25.30;91.70
3816;DHT22;1923;48.154;11.536;2023-07-08T07:35:29;25.30;91.30
3816;DHT22;1923;48.154;11.536;2023-07-08T07:37:58;25.50;91.40
3816;DHT22;1923;48.154;11.536;2023-07-08T07:40:26;25.50;91.30
3816;DHT22;1923;48.154;11.536;2023-07-08T07:42:54;25.60;91.50
3816;DHT22;1923;48.154;11.536;2023-07-08T07:45:22;25.60;91.50
3816;DHT22;1923;48.154;11.536;2023-07-08T07:47:50;25.70;91.70
3816;DHT22;1923;48.154;11.536;2023-07-08T07:50:18;25.70;91.90
3816;DHT22;1923;48.154;11.536;2023-07-08T07:52:47;25.70;91.60
3816;DHT22;1923;48.154;11.536;2023-07-08T07:55:16;25.60;91.90
3816;DHT22;1923;48.154;11.536;2023-07-08T07:57:44;25.70;91.90
3816;DHT22;1923;48.154;11.536;2023-07-08T08:00:14;25.80;92.10
3816;DHT22;1923;48.154;11.536;2023-07-08T08:02:42;26.00;91.70
3816;DHT22;1923;48.154;11.536;2023-07-08T08:05:10;26.10;91.00
3816;DHT22;1923;48.154;11.536;2023-07-08T08:07:38;26.10;90.30
3816;DHT22;1923;48.154;11.536;2023-07-08T08:10:09;26.30;88.90
3816;DHT22;1923;48.154;11.536;2023-07-08T08:12:37;26.30;87.60
3816;DHT22;1923;48.154;11.536;2023-07-08T08:15:20;26.30;86.90
3816;DHT22;1923;48.154;11.536;2023-07-08T08:17:48;26.30;87.30
3816;DHT22;1923;48.154;11.536;2023-07-08T08:20:19;26.30;87.80
3816;DHT22;1923;48.154;11.536;2023-07-08T08:22:48;26.30;88.00
3816;DHT22;1923;48.154;11.536;2023-07-08T08:25:20;26.40;88.40
3816;DHT22;1923;48.154;11.536;2023-07-08T08:27:48;26.40;88.70
3816;DHT22;1923;48.154;11.536;2023-07-08T08:30:18;26.50;89.10
3816;DHT22;1923;48.154;11.536;2023-07-08T08:32:47;26.60;89.20
3816;DHT22;1923;48.154;11.536;2023-07-08T08:35:15;26.80;89.60
3816;DHT22;1923;48.154;11.536;2023-07-08T08:37:43;27.10;88.50
3816;DHT22;1923;48.154;11.536;2023-07-08T08:40:13;27.50;88.30
3816;DHT22;1923;48.154;11.536;2023-07-08T08:42:52;27.60;87.80
3816;DHT22;1923;48.154;11.536;2023-07-08T08:45:22;27.70;87.00
3816;DHT22;1923;48.154;11.536;2023-07-08T08:47:56;28.10;86.10
3816;DHT22;1923;48.154;11.536;2023-07-08T08:50:29;28.30;84.80
3816;DHT22;1923;48.154;11.536;2023-07-08T08:53:01;28.50;84.00
3816;DHT22;1923;48.154;11.536;2023-07-08T08:55:30;28.80;82.80
3816;DHT22;1923;48.154;11.536;2023-07-08T08:58:07;29.00;82.50
3816;DHT22;1923;48.154;11.536;2023-07-08T09:00:45;28.90;82.00
3816;DHT22;1923;48.154;11.536;2023-07-08T09:03:17;28.80;81.70
3816;DHT22;1923;48.154;11.536;2023-07-08T09:05:46;28.60;81.30
3816;DHT22;1923;48.154;11.536;2023-07-08T09:08:20;29.00;81.20
3816;DHT22;1923;48.154;11.536;2023-07-08T09:10:57;29.00;80.30
3816;DHT22;1923;48.154;11.536;2023-07-08T09:13:32;29.00;80.40
3816;DHT22;1923;48.154;11.536;2023-07-08T09:16:06;29.10;80.70
3816;DHT22;1923;48.154;11.536;2023-07-08T09:18:40;28.80;80.80
3816;DHT22;1923;48.154;11.536;2023-07-08T09:21:17;28.90;80.60
3816;DHT22;1923;48.154;11.536;2023-07-08T09:23:48;29.00;81.00
3816;DHT22;1923;48.154;11.536;2023-07-08T09:26:21;29.10;81.40
3816;DHT22;1923;48.154;11.536;2023-07-08T09:28:51;29.30;82.10
3816;DHT22;1923;48.154;11.536;2023-07-08T09:31:23;29.30;80.80
3816;DHT22;1923;48.154;11.536;2023-07-08T09:33:53;29.20;80.70
3816;DHT22;1923;48.154;11.536;2023-07-08T09:36:24;29.10;81.30
3816;DHT22;1923;48.154;11.536;2023-07-08T09:38:53;29.30;80.50
3816;DHT22;1923;48.154;11.536;2023-07-08T09:41:32;29.60;79.80
3816;DHT22;1923;48.154;11.536;2023-07-08T09:44:13;29.60;79.70
3816;DHT22;1923;48.154;11.536;2023-07-08T09:46:42;29.50;79.30
3816;DHT22;1923;48.154;11.536;2023-07-08T09:49:19;29.90;78.80
3816;DHT22;1923;48.154;11.536;2023-07-08T09:51:50;30.40;78.70
3816;DHT22;1923;48.154;11.536;2023-07-08T09:54:19;30.70;77.20
3816;DHT22;1923;48.154;11.536;2023-07-08T09:56:57;31.30;76.10
3816;DHT22;1923;48.154;11.536;2023-07-08T09:59:31;31.80;74.60
3816;DHT22;1923;48.154;11.536;2023-07-08T10:02:04;32.30;72.50
3816;DHT22;1923;48.154;11.536;2023-07-08T10:04:44;32.90;70.80
3816;DHT22;1923;48.154;11.536;2023-07-08T10:07:16;33.70;67.80
3816;DHT22;1923;48.154;11.536;2023-07-08T10:09:47;34.80;65.20
3816;DHT22;1923;48.154;11.536;2023-07-08T10:12:16;35.30;63.60
3816;DHT22;1923;48.154;11.536;2023-07-08T10:14:49;35.80;60.80
3816;DHT22;1923;48.154;11.536;2023-07-08T10:17:20;36.50;58.10
3816;DHT22;1923;48.154;11.536;2023-07-08T10:19:49;36.90;57.10
3816;DHT22;1923;48.154;11.536;2023-07-08T10:22:32;37.60;56.00
3816;DHT22;1923;48.154;11.536;2023-07-08T10:25:12;38.00;56.00
3816;DHT22;1923;48.154;11.536;2023-07-08T10:27:49;37.90;54.70
3816;DHT22;1923;48.154;11.536;2023-07-08T10:30:24;38.40;53.60
3816;DHT22;1923;48.154;11.536;2023-07-08T10:38:48;40.40;49.90
3816;DHT22;1923;48.154;11.536;2023-07-08T10:41:30;40.80;48.90
3816;DHT22;1923;48.154;11.536;2023-07-08T10:44:07;41.10;48.20
3816;DHT22;1923;48.154;11.536;2023-07-08T10:46:58;41.70;46.80
3816;DHT22;1923;48.154;11.536;2023-07-08T10:49:38;42.40;46.40
3816;DHT22;1923;48.154;11.536;2023-07-08T10:52:23;42.60;45.10
3816;DHT22;1923;48.154;11.536;2023-07-08T10:55:02;41.70;45.30
3816;DHT22;1923;48.154;11.536;2023-07-08T10:57:46;40.70;45.80
3816;DHT22;1923;48.154;11.536;2023-07-08T11:00:27;40.40;46.30
3816;DHT22;1923;48.154;11.536;2023-07-08T11:03:13;40.50;46.10
3816;DHT22;1923;48.154;11.536;2023-07-08T11:05:55;40.90;45.60
3816;DHT22;1923;48.154;11.536;2023-07-08T11:08:27;41.10;45.60
3816;DHT22;1923;48.154;11.536;2023-07-08T11:10:59;41.60;45.00
3816;DHT22;1923;48.154;11.536;2023-07-08T11:13:45;41.80;43.10
3816;DHT22;1923;48.154;11.536;2023-07-08T11:16:23;41.20;44.70
3816;DHT22;1923;48.154;11.536;2023-07-08T11:18:56;40.70;44.90
3816;DHT22;1923;48.154;11.536;2023-07-08T11:21:32;39.50;45.30
3816;DHT22;1923;48.154;11.536;2023-07-08T11:24:06;38.40;46.00
3816;DHT22;1923;48.154;11.536;2023-07-08T11:26:43;37.40;46.40
3816;DHT22;1923;48.154;11.536;2023-07-08T11:29:18;36.30;49.20
3816;DHT22;1923;48.154;11.536;2023-07-08T11:31:47;35.50;50.70
3816;DHT22;1923;48.154;11.536;2023-07-08T11:34:18;35.30;51.60
3816;DHT22;1923;48.154;11.536;2023-07-08T11:36:48;34.80;52.10
3816;DHT22;1923;48.154;11.536;2023-07-08T11:39:27;34.30;53.10
3816;DHT22;1923;48.154;11.536;2023-07-08T11:42:05;33.90;54.20
3816;DHT22;1923;48.154;11.536;2023-07-08T11:44:42;33.50;54.60
3816;DHT22;1923;48.154;11.536;2023-07-08T11:47:15;33.40;55.90
3816;DHT22;1923;48.154;11.536;2023-07-08T11:49:46;33.00;55.60
3816;DHT22;1923;48.154;11.536;2023-07-08T11:52:18;32.70;56.30
3816;DHT22;1923;48.154;11.536;2023-07-08T11:54:48;32.30;56.70
3816;DHT22;1923;48.154;11.536;2023-07-08T11:57:28;32.20;57.20
3816;DHT22;1923;48.154;11.536;2023-07-08T12:00:15;31.90;56.60
3816;DHT22;1923;48.154;11.536;2023-07-08T12:02:53;31.80;57.60
3816;DHT22;1923;48.154;11.536;2023-07-08T12:05:34;31.80;56.10
3816;DHT22;1923;48.154;11.536;2023-07-08T12:08:09;31.60;55.30
3816;DHT22;1923;48.154;11.536;2023-07-08T12:10:41;31.40;55.70
3816;DHT22;1923;48.154;11.536;2023-07-08T12:13:14;31.30;56.00
3816;DHT22;1923;48.154;11.536;2023-07-08T12:15:42;31.20;54.90
3816;DHT22;1923;48.154;11.536;2023-07-08T12:18:14;31.30;55.80
3816;DHT22;1923;48.154;11.536;2023-07-08T12:20:47;31.20;55.10
3816;DHT22;1923;48.154;11.536;2023-07-08T12:23:18;31.10;55.60
3816;DHT22;1923;48.154;11.536;2023-07-08T12:25:49;31.00;55.50
3816;DHT22;1923;48.154;11.536;2023-07-08T12:28:18;31.00;54.40
3816;DHT22;1923;48.154;11.536;2023-07-08T12:30:47;30.80;53.20
3816;DHT22;1923;48.154;11.536;2023-07-08T12:33:19;30.90;53.60
3816;DHT22;1923;48.154;11.536;2023-07-08T12:35:51;31.20;52.80
3816;DHT22;1923;48.154;11.536;2023-07-08T12:38:23;31.40;52.10
3816;DHT22;1923;48.154;11.536;2023-07-08T12:40:55;31.50;51.60
3816;DHT22;1923;48.154;11.536;2023-07-08T12:43:25;31.70;50.40
3816;DHT22;1923;48.154;11.536;2023-07-08T12:45:54;31.60;50.90
3816;DHT22;1923;48.154;11.536;2023-07-08T12:48:22;31.50;50.50
3816;DHT22;1923;48.154;11.536;2023-07-08T12:50:52;31.60;51.20
3816;DHT22;1923;48.154;11.536;2023-07-08T12:53:20;31.70;51.40
3816;DHT22;1923;48.154;11.536;2023-07-08T12:55:50;31.50;52.00
3816;DHT22;1923;48.154;11.536;2023-07-08T12:58:24;31.40;53.30
3816;DHT22;1923;48.154;11.536;2023-07-08T13:00:55;31.50;53.00
3816;DHT22;1923;48.154;11.536;2023-07-08T13:03:28;31.60;53.10
3816;DHT22;1923;48.154;11.536;2023-07-08T13:06:00;31.60;52.20
3816;DHT22;1923;48.154;11.536;2023-07-08T13:08:36;31.40;52.90
3816;DHT22;1923;48.154;11.536;2023-07-08T13:11:06;31.20;52.70
3816;DHT22;1923;48.154;11.536;2023-07-08T13:13:37;31.10;52.60
3816;DHT22;1923;48.154;11.536;2023-07-08T13:16:07;31.00;52.50
3816;DHT22;1923;48.154;11.536;2023-07-08T13:18:39;31.10;52.40
3816;DHT22;1923;48.154;11.536;2023-07-08T13:21:12;31.10;52.70
3816;DHT22;1923;48.154;11.536;2023-07-08T13:23:41;31.00;51.90
3816;DHT22;1923;48.154;11.536;2023-07-08T13:26:13;31.10;51.80
3816;DHT22;1923;48.154;11.536;2023-07-08T13:28:42;31.20;52.60
3816;DHT22;1923;48.154;11.536;2023-07-08T13:31:16;31.20;51.50
3816;DHT22;1923;48.154;11.536;2023-07-08T13:33:51;31.10;49.70
3816;DHT22;1923;48.154;11.536;2023-07-08T13:36:23;31.00;51.50
3816;DHT22;1923;48.154;11.536;2023-07-08T13:38:51;31.00;52.10
3816;DHT22;1923;48.154;11.536;2023-07-08T13:41:21;30.90;51.30
3816;DHT22;1923;48.154;11.536;2023-07-08T13:43:50;30.90;51.90
3816;DHT22;1923;48.154;11.536;2023-07-08T13:46:29;31.00;52.10
3816;DHT22;1923;48.154;11.536;2023-07-08T13:49:01;30.90;52.80
3816;DHT22;1923;48.154;11.536;2023-07-08T13:51:32;30.80;53.00
3816;DHT22;1923;48.154;11.536;2023-07-08T13:54:08;30.90;52.20
3816;DHT22;1923;48.154;11.536;2023-07-08T13:56:36;30.90;49.80
3816;DHT22;1923;48.154;11.536;2023-07-08T13:59:06;30.70;49.80
3816;DHT22;1923;48.154;11.536;2023-07-08T14:01:38;30.60;49.80
3816;DHT22;1923;48.154;11.536;2023-07-08T14:04:07;30.50;50.40
3816;DHT22;1923;48.154;11.536;2023-07-08T14:06:40;30.50;50.80
3816;DHT22;1923;48.154;11.536;2023-07-08T14:09:13;30.40;50.70
3816;DHT22;1923;48.154;11.536;2023-07-08T14:11:42;30.50;51.10
3816;DHT22;1923;48.154;11.536;2023-07-08T14:14:10;30.40;51.40
3816;DHT22;1923;48.154;11.536;2023-07-08T14:16:40;30.40;51.00
3816;DHT22;1923;48.154;11.536;2023-07-08T14:19:13;30.40;50.30
3816;DHT22;1923;48.154;11.536;2023-07-08T14:21:45;30.40;50.10
3816;DHT22;1923;48.154;11.536;2023-07-08T14:24:14;30.50;50.50
3816;DHT22;1923;48.154;11.536;2023-07-08T14:26:43;30.60;50.80
3816;DHT22;1923;48.154;11.536;2023-07-08T14:29:12;30.70;51.10
3816;DHT22;1923;48.154;11.536;2023-07-08T14:31:41;30.70;51.30
3816;DHT22;1923;48.154;11.536;2023-07-08T14:34:13;30.70;51.30
3816;DHT22;1923;48.154;11.536;2023-07-08T14:36:46;30.70;50.90
3816;DHT22;1923;48.154;11.536;2023-07-08T14:39:15;30.70;50.90
3816;DHT22;1923;48.154;11.536;2023-07-08T14:41:45;30.80;51.00
3816;DHT22;1923;48.154;11.536;2023-07-08T14:44:20;30.90;50.70
3816;DHT22;1923;48.154;11.536;2023-07-08T14:46:49;31.00;50.80
3816;DHT22;1923;48.154;11.536;2023-07-08T14:49:19;31.10;49.50
3816;DHT22;1923;48.154;11.536;2023-07-08T14:51:50;31.20;48.90
3816;DHT22;1923;48.154;11.536;2023-07-08T14:54:19;31.30;49.00
3816;DHT22;1923;48.154;11.536;2023-07-08T14:56:48;31.40;49.20
3816;DHT22;1923;48.154;11.536;2023-07-08T14:59:19;31.40;49.10
3816;DHT22;1923;48.154;11.536;2023-07-08T15:01:49;31.40;49.50
3816;DHT22;1923;48.154;11.536;2023-07-08T15:04:17;31.40;48.30
3816;DHT22;1923;48.154;11.536;2023-07-08T15:06:46;31.50;47.90
3816;DHT22;1923;48.154;11.536;2023-07-08T15:09:16;31.40;47.40
3816;DHT22;1923;48.154;11.536;2023-07-08T15:11:45;31.40;48.40
3816;DHT22;1923;48.154;11.536;2023-07-08T15:14:19;31.30;47.90
3816;DHT22;1923;48.154;11.536;2023-07-08T15:16:47;31.30;48.10
3816;DHT22;1923;48.154;11.536;2023-07-08T15:19:17;31.30;48.90
3816;DHT22;1923;48.154;11.536;2023-07-08T15:21:46;31.40;49.50
3816;DHT22;1923;48.154;11.536;2023-07-08T15:24:16;31.40;49.00
3816;DHT22;1923;48.154;11.536;2023-07-08T15:26:45;31.40;49.40
3816;DHT22;1923;48.154;11.536;2023-07-08T15:29:16;31.40;49.10
3816;DHT22;1923;48.154;11.536;2023-07-08T15:31:45;31.30;49.40
3816;DHT22;1923;48.154;11.536;2023-07-08T15:34:14;31.30;49.40
3816;DHT22;1923;48.154;11.536;2023-07-08T15:36:42;31.30;49.30
3816;DHT22;1923;48.154;11.536;2023-07-08T15:39:10;31.40;49.60
3816;DHT22;1923;48.154;11.536;2023-07-08T15:41:42;31.40;49.80
3816;DHT22;1923;48.154;11.536;2023-07-08T15:44:11;31.40;49.60
3816;DHT22;1923;48.154;11.536;2023-07-08T15:46:41;31.30;49.20
3816;DHT22;1923;48.154;11.536;2023-07-08T15:49:13;31.40;49.30
3816;DHT22;1923;48.154;11.536;2023-07-08T15:51:42;31.40;49.60
3816;DHT22;1923;48.154;11.536;2023-07-08T15:54:15;31.40;50.20
3816;DHT22;1923;48.154;11.536;2023-07-08T15:56:45;31.30;50.40
3816;DHT22;1923;48.154;11.536;2023-07-08T15:59:17;31.20;51.60
3816;DHT22;1923;48.154;11.536;2023-07-08T16:01:45;31.20;51.30
3816;DHT22;1923;48.154;11.536;2023-07-08T16:04:22;31.00;50.70
3816;DHT22;1923;48.154;11.536;2023-07-08T16:06:50;30.90;51.30
3816;DHT22;1923;48.154;11.536;2023-07-08T16:09:18;30.80;51.50
3816;DHT22;1923;48.154;11.536;2023-07-08T16:11:48;30.60;51.20
3816;DHT22;1923;48.154;11.536;2023-07-08T16:14:17;30.60;51.50